This is the latest recevied weather packets stored in our database for station/object KP4FJC. If no packets are shown the sender has not sent any weather packets the latest 10 day(s).
| Time | Temp. | Humidity | Pressure | Rain* | Wind** | Luminosity | Snow |
|---|---|---|---|---|---|---|---|
| 1777989506 | 30.56° C | 71% | 1019 hPa | 0 mm | - | 749 W/m² | - |
| 1777989202 | 30° C | 71% | 1019 hPa | 0 mm | - | 727 W/m² | - |
| 1777988899 | 30° C | 70% | 1019 hPa | 0 mm | - | 710 W/m² | - |
| 1777988596 | 30° C | 71% | 1018.7 hPa | 0 mm | - | 709 W/m² | - |
| 1777988292 | 30° C | 71% | 1018.9 hPa | 0 mm | - | 700 W/m² | - |
| 1777987989 | 29.44° C | 72% | 1018.9 hPa | 0 mm | - | 565 W/m² | - |
| 1777987685 | 28.89° C | 73% | 1018.9 hPa | 0 mm | - | 709 W/m² | - |
| 1777987382 | 29.44° C | 72% | 1018.8 hPa | 0 mm | - | 728 W/m² | - |
| 1777987079 | 29.44° C | 71% | 1018.8 hPa | 0 mm | - | 516 W/m² | - |
| 1777986776 | 29.44° C | 73% | 1018.8 hPa | 0 mm | - | 577 W/m² | - |
| 1777986474 | 30.56° C | 70% | 1018.6 hPa | 0 mm | - | 566 W/m² | - |
| 1777986172 | 30° C | 73% | 1018.7 hPa | 0 mm | - | 563 W/m² | - |
| 1777985869 | 29.44° C | 73% | 1018.8 hPa | 0 mm | - | 563 W/m² | - |
| 1777985566 | 30.56° C | 71% | 1018.9 hPa | 0 mm | - | 542 W/m² | - |
| 1777985263 | 29.44° C | 75% | 1018.7 hPa | 0 mm | - | 505 W/m² | - |
| 1777984960 | 28.89° C | 77% | 1018.7 hPa | 0 mm | - | 566 W/m² | - |
| 1777984655 | 29.44° C | 75% | 1018.6 hPa | 0 mm | - | 459 W/m² | - |
| 1777984352 | 28.33° C | 79% | 1018.7 hPa | 0 mm | - | 481 W/m² | - |
| 1777984048 | 28.33° C | 81% | 1018.6 hPa | 0 mm | - | 438 W/m² | - |
| 1777983746 | 27.78° C | 82% | 1018.5 hPa | 0 mm | - | 401 W/m² | - |
| 1777983442 | 27.22° C | 83% | 1018.6 hPa | 0 mm | - | 98 W/m² | - |
| 1777983139 | 27.78° C | 83% | 1018.5 hPa | 0 mm | - | 97 W/m² | - |
| 1777982836 | 27.78° C | 82% | 1018.7 hPa | 0 mm | - | 346 W/m² | - |
| 1777982531 | 27.78° C | 83% | 1018.6 hPa | 0 mm | - | 336 W/m² | - |
| 1777982225 | 27.78° C | 82% | 1018.4 hPa | 0 mm | - | 161 W/m² | - |
* Rain latest hour (hover to see other rain measurements)
** Current wind speed in m/s (hover to see current wind gust speed)